Terminal Aerodrome Forecast
Issued by NWS

Home | Current Version | Previous Version | Graphics & Text | Print | Product List | Glossary On
Versions: 1 2 3 4 5 6 7 8 9 10 11 12 13 14 15 16
412
FTUS43 KICT 300520
TAFSLN
TAF
KSLN 300520Z 3006/3106 16007KT P6SM BKN250
     FM301900 17012KT P6SM SCT040=

USA.gov is the U.S. government's official web portal to all federal, state and local government web resources and services.